Keefeton, Oklahoma
Current Conditions -  °F | °C
As of 3:53 PM on Sunday 25 Jan 2015 (Local Time) from KMKO Reporting Station
Light Rain Light Rain  
Wind Chill: 52°   Ceiling: 6000
Heat Index: 52°   Visibility: 10mi
Dew Point: 31°   Wind: 26mph
Humidity: 45%   Direction: 320°NW
Pressure: 29.99"   Gusts: 38mph
Location:  35.6818°N, 95.3578°W
Report Text: KMKO 252153Z AUTO 32023G33KT 10SM -RA OVC060 11/M01 A2999 RMK AO2 PK WND 31036/2058 RAB2056 SLP155 P0000 T01111006
Loading
Personal Weather Stations






























Interactive Weather Map New forecast layout! Learn more

10-Day Weather Forecast

Advertisements
Track Severe Weather on mobile